This is the latest recevied weather packets stored in our database for station/object DK6MR-13. If no packets are shown the sender has not sent any weather packets the latest 1 day(s).
| Time | Temp. | Humidity | Pressure | Rain* | Wind** | Luminosity | Snow |
|---|---|---|---|---|---|---|---|
| 1777999196 | 14.44° C | 89% | 1005.1 hPa | 4.83 mm | 0.45 m/s, 33° | - | - |
| 1777998295 | 14.44° C | 89% | 1005.1 hPa | 1.78 mm | 0.45 m/s, 67° | - | - |
| 1777997393 | 15° C | 89% | 1004.7 hPa | 3.05 mm | 0.45 m/s, 344° | - | - |
| 1777996492 | 15° C | 88% | 1005.1 hPa | 3.05 mm | 0.45 m/s, 36° | - | - |
| 1777995591 | 15° C | 88% | 1005.1 hPa | 4.83 mm | 0 m/s | - | - |
| 1777994690 | 15.56° C | 86% | 1005.1 hPa | 1.27 mm | 0.45 m/s, 317° | - | - |
| 1777993789 | 16.11° C | 83% | 1005.4 hPa | 1.27 mm | 0.45 m/s, 353° | - | - |
| 1777992888 | 16.11° C | 80% | 1005.1 hPa | 0 mm | 0.89 m/s, 326° | - | - |
| 1777991987 | 16.67° C | 79% | 1005.4 hPa | 0 mm | 0 m/s | - | - |
| 1777991086 | 16.67° C | 79% | 1005.1 hPa | 0 mm | 0 m/s | - | - |
| 1777990185 | 16.67° C | 76% | 1005.4 hPa | 0 mm | 0 m/s | - | - |
| 1777989284 | 16.67° C | 74% | 1005.4 hPa | 0 mm | 0 m/s | - | - |
| 1777988383 | 17.78° C | 71% | 1005.7 hPa | 0 mm | 0.45 m/s, 327° | - | - |
| 1777987481 | 18.33° C | 68% | 1005.7 hPa | 0 mm | 0.45 m/s, 330° | - | - |
| 1777986580 | 18.89° C | 64% | 1005.7 hPa | 0 mm | 0.89 m/s, 63° | - | - |
| 1777985679 | 18.33° C | 67% | 1005.7 hPa | 0 mm | 1.34 m/s, 7° | - | - |
| 1777984779 | 17.78° C | 71% | 1006.4 hPa | 0 mm | 0.89 m/s, 323° | - | - |
| 1777983878 | 17.78° C | 71% | 1006.1 hPa | 0 mm | 0 m/s | - | - |
| 1777982977 | 17.22° C | 76% | 1006.1 hPa | 0 mm | 0 m/s | - | - |
| 1777982076 | 17.22° C | 73% | 1006.4 hPa | 0 mm | 0 m/s | - | - |
| 1777981175 | 17.22° C | 73% | 1006.4 hPa | 0 mm | 0 m/s | - | - |
| 1777980274 | 17.22° C | 76% | 1006.4 hPa | 0 mm | 0 m/s | - | - |
| 1777979373 | 16.67° C | 75% | 1006.4 hPa | 0 mm | 0.89 m/s, 61° | - | - |
| 1777978472 | 16.67° C | 80% | 1006.7 hPa | 0 mm | 0 m/s | - | - |
| 1777977570 | 15.56° C | 85% | 1007.1 hPa | 0 mm | 0 m/s | - | - |
* Rain latest hour (hover to see other rain measurements)
** Current wind speed in m/s (hover to see current wind gust speed)